Time;durP1;ratioP1;P1;durP2;ratioP2;P2;SDS_P1;SDS_P2;PMS_P1;PMS_P2;Temp;Humidity;BMP_temperature;BMP_pressure;BME280_temperature;BME280_humidity;BME280_pressure;Samples;Min_cycle;Max_cycle;Signal;HPM_P1;HPM_P2
2021/03/20 00:02:19;;;;;;;20.68;4.30;;;;;;;-2.84;68.82;99282.32;2214840;80;21280;-73
2021/03/20 00:05:21;;;;;;;19.95;4.15;;;;;;;-2.92;68.82;99286.58;2195200;79;21284;-73
2021/03/20 00:08:23;;;;;;;21.97;5.00;;;;;;;-2.95;68.33;99298.14;2211189;80;21276;-73
2021/03/20 00:11:26;;;;;;;18.50;4.00;;;;;;;-2.99;68.57;99287.44;2139165;81;21597;-72
2021/03/20 00:14:28;;;;;;;19.57;4.10;;;;;;;-3.01;68.98;99285.30;2202397;80;21731;-73
2021/03/20 00:17:30;;;;;;;21.23;4.72;;;;;;;-3.00;68.96;99293.44;2195163;79;21728;-73
2021/03/20 00:20:32;;;;;;;16.77;4.50;;;;;;;-3.00;69.05;99293.00;2211306;79;21739;-73
2021/03/20 00:23:34;;;;;;;17.60;4.42;;;;;;;-2.93;68.76;99294.28;2209520;80;21739;-73
2021/03/20 00:26:36;;;;;;;17.37;4.28;;;;;;;-2.92;68.97;99300.70;2193028;80;21280;-73
2021/03/20 00:29:38;;;;;;;19.40;4.00;;;;;;;-2.93;68.47;99296.45;2192748;80;21287;-73
2021/03/20 00:32:40;;;;;;;18.90;4.28;;;;;;;-2.99;68.95;99295.13;2198934;80;21740;-73
2021/03/20 00:35:42;;;;;;;18.20;4.17;;;;;;;-3.06;69.26;99299.83;2186621;80;21699;-73
2021/03/20 00:38:44;;;;;;;14.70;3.75;;;;;;;-3.07;69.21;99296.86;2190793;80;21734;-73
2021/03/20 00:41:46;;;;;;;18.25;4.25;;;;;;;-3.05;69.57;99301.11;2199043;80;21725;-73
2021/03/20 00:44:49;;;;;;;;;;;;;;;-3.03;69.14;99302.39;2187607;80;21346;-73
2021/03/20 00:47:51;;;;;;;18.83;3.80;;;;;;;-2.94;69.07;99305.41;2209858;80;20265;-73
2021/03/20 00:50:53;;;;;;;16.60;3.85;;;;;;;-2.92;68.92;99310.97;2189163;80;21296;-73
2021/03/20 00:53:55;;;;;;;19.40;4.03;;;;;;;-2.97;68.47;99313.54;2161200;80;21164;-73
2021/03/20 00:56:57;;;;;;;18.35;3.83;;;;;;;-3.00;69.46;99320.39;2181728;80;21303;-73
2021/03/20 00:59:59;;;;;;;20.88;4.30;;;;;;;-2.99;69.19;99311.81;2204375;78;21161;-73
2021/03/20 01:03:01;;;;;;;13.30;3.52;;;;;;;-2.99;69.18;99315.67;2186472;80;21295;-73
2021/03/20 01:06:03;;;;;;;17.98;4.33;;;;;;;-2.93;69.09;99314.41;2184474;80;21303;-73
2021/03/20 01:09:05;;;;;;;20.02;4.22;;;;;;;-2.91;68.76;99319.55;2185679;80;21388;-73
2021/03/20 01:12:07;;;;;;;17.80;4.30;;;;;;;-2.90;68.94;99316.11;2212251;80;21150;-73
2021/03/20 01:15:09;;;;;;;19.40;4.20;;;;;;;-2.91;69.30;99313.98;2204856;80;21303;-73
2021/03/20 01:18:11;;;;;;;19.25;4.25;;;;;;;-2.89;69.02;99316.55;2197754;80;21735;-73
2021/03/20 01:21:13;;;;;;;15.58;3.65;;;;;;;-2.88;69.08;99319.11;2204361;80;21312;-73
2021/03/20 01:24:15;;;;;;;20.35;4.58;;;;;;;-2.84;68.67;99319.98;2158950;81;21300;-73
2021/03/20 01:27:18;;;;;;;22.35;4.28;;;;;;;-2.86;68.60;99316.14;2197397;80;21739;-73
2021/03/20 01:30:20;;;;;;;18.92;4.40;;;;;;;-2.83;68.73;99316.55;2180095;80;21311;-73
2021/03/20 01:33:22;;;;;;;15.08;3.83;;;;;;;-2.75;68.54;99314.84;2198300;78;21312;-73
2021/03/20 01:36:23;;;;;;;19.07;4.70;;;;;;;-2.79;68.55;99322.99;2182234;80;21333;-73
2021/03/20 01:39:25;;;;;;;16.75;4.20;;;;;;;-2.91;68.27;99331.10;2207218;80;21295;-73
2021/03/20 01:42:27;;;;;;;16.07;3.80;;;;;;;-2.93;68.62;99314.83;2201545;80;21287;-73
2021/03/20 01:45:29;;;;;;;19.23;4.20;;;;;;;-2.97;68.00;99310.13;2184676;80;21310;-73
2021/03/20 01:48:31;;;;;;;17.80;3.98;;;;;;;-3.04;67.62;99314.38;2191077;80;21704;-73
2021/03/20 01:51:33;;;;;;;18.90;4.85;;;;;;;-3.07;68.22;99318.23;2199103;80;21771;-74
2021/03/20 01:54:35;;;;;;;18.05;4.12;;;;;;;-3.11;67.98;99313.94;2182183;80;21330;-73
2021/03/20 01:57:37;;;;;;;18.62;4.42;;;;;;;-3.13;67.84;99320.80;2182299;80;21312;-74
2021/03/20 02:00:39;;;;;;;18.80;4.80;;;;;;;-3.19;67.56;99324.61;2185876;80;21292;-73
2021/03/20 02:03:41;;;;;;;17.98;4.05;;;;;;;-3.18;68.02;99327.61;2195310;80;21311;-73
2021/03/20 02:06:43;;;;;;;16.67;3.50;;;;;;;-3.21;67.40;99331.45;2189906;80;21359;-73
2021/03/20 02:09:46;;;;;;;19.77;3.90;;;;;;;-3.22;67.89;99325.89;2210092;80;21158;-73
2021/03/20 02:12:48;;;;;;;19.50;4.17;;;;;;;-3.23;67.96;99328.89;2180740;80;21391;-73
2021/03/20 02:15:49;;;;;;;19.50;3.55;;;;;;;-3.24;67.60;99325.89;2188002;80;21311;-73
2021/03/20 02:18:51;;;;;;;20.08;4.10;;;;;;;-3.19;67.62;99321.64;2196388;80;21292;-73
2021/03/20 02:21:53;;;;;;;20.40;4.47;;;;;;;-3.22;67.54;99326.77;2202636;80;21283;-73
2021/03/20 02:24:55;;;;;;;18.52;4.05;;;;;;;-3.19;68.00;99322.92;2189865;80;21319;-74
2021/03/20 02:27:58;;;;;;;18.87;3.80;;;;;;;-3.19;67.66;99330.62;2208955;80;21740;-73
2021/03/20 02:31:00;;;;;;;18.25;3.83;;;;;;;-3.12;67.15;99331.91;2214370;80;21727;-73
2021/03/20 02:34:02;;;;;;;18.55;4.15;;;;;;;-3.07;67.68;99333.63;2191343;80;21264;-73
2021/03/20 02:37:04;;;;;;;19.65;3.72;;;;;;;-3.08;67.12;99329.78;2196687;80;21737;-74
2021/03/20 02:40:06;;;;;;;20.23;4.45;;;;;;;-3.11;66.91;99334.91;2202293;80;21700;-73
2021/03/20 02:43:08;;;;;;;16.52;3.52;;;;;;;-3.10;66.58;99336.60;2204201;80;21773;-73
2021/03/20 02:46:10;;;;;;;18.50;4.08;;;;;;;-3.07;66.73;99335.36;2209071;80;21691;-73
2021/03/20 02:49:12;;;;;;;19.20;4.37;;;;;;;-3.05;67.16;99334.92;2187777;80;21288;-74
2021/03/20 02:52:14;;;;;;;18.05;4.00;;;;;;;-3.02;66.64;99341.34;2188417;80;21356;-73
2021/03/20 02:55:16;;;;;;;20.90;4.08;;;;;;;-3.05;66.33;99342.17;2186640;80;21288;-73
2021/03/20 02:58:18;;;;;;;19.45;4.60;;;;;;;-3.19;67.02;99338.72;2191379;80;21288;-73
2021/03/20 03:01:20;;;;;;;18.42;3.90;;;;;;;-3.19;67.02;99338.72;2206350;80;21146;-74
2021/03/20 03:04:22;;;;;;;15.03;3.75;;;;;;;-3.19;66.82;99353.71;2204162;80;21318;-73
2021/03/20 03:07:24;;;;;;;17.30;4.20;;;;;;;-3.27;65.66;99355.39;2206503;80;21811;-73
2021/03/20 03:10:26;;;;;;;16.57;3.80;;;;;;;-3.29;65.74;99358.36;2197730;80;21866;-73
2021/03/20 03:13:28;;;;;;;19.48;3.83;;;;;;;-3.37;65.58;99368.60;2201291;79;21747;-73
2021/03/20 03:16:30;;;;;;;21.17;4.50;;;;;;;-3.47;65.31;99371.98;2206716;79;21279;-73
2021/03/20 03:19:32;;;;;;;21.35;4.58;;;;;;;-3.49;65.87;99373.27;2199135;80;21359;-73
2021/03/20 03:22:34;;;;;;;22.93;5.12;;;;;;;-3.52;66.60;99373.25;2196010;80;21743;-73
2021/03/20 03:25:36;;;;;;;19.50;4.62;;;;;;;-3.58;66.74;99378.77;2198806;80;21299;-73
2021/03/20 03:28:38;;;;;;;23.67;5.05;;;;;;;-3.72;67.05;99382.13;2190319;80;21297;-73
2021/03/20 03:31:40;;;;;;;21.25;4.42;;;;;;;-3.76;67.67;99384.23;2186303;79;21276;-73
2021/03/20 03:34:42;;;;;;;27.00;4.87;;;;;;;-3.79;67.07;99394.47;2197452;80;21339;-73
2021/03/20 03:37:44;;;;;;;27.55;4.92;;;;;;;-3.79;66.84;99390.63;2202213;80;21735;-73
2021/03/20 03:40:47;;;;;;;22.05;4.78;;;;;;;-3.82;66.51;99395.74;2206592;79;21784;-73
2021/03/20 03:43:49;;;;;;;22.17;4.40;;;;;;;-3.84;66.96;99403.83;2207605;80;21288;-73
2021/03/20 03:46:51;;;;;;;23.77;5.17;;;;;;;-3.87;66.78;99389.72;2206136;80;21304;-73
2021/03/20 03:49:53;;;;;;;21.75;4.97;;;;;;;-3.94;66.88;99388.80;2189525;80;21372;-73
2021/03/20 03:52:55;;;;;;;20.43;4.10;;;;;;;-3.98;66.31;99399.03;2203054;79;21316;-73
2021/03/20 03:55:57;;;;;;;21.45;4.92;;;;;;;-4.06;66.34;99388.30;2188255;80;21289;-73
2021/03/20 03:58:59;;;;;;;23.57;5.03;;;;;;;-4.14;67.07;99392.51;2203911;79;21292;-73
2021/03/20 04:02:01;;;;;;;25.57;5.70;;;;;;;-4.19;67.01;99398.04;2202254;80;21726;-73
2021/03/20 04:05:03;;;;;;;24.60;5.37;;;;;;;-4.18;67.08;99396.77;2192983;79;21714;-73
2021/03/20 04:08:05;;;;;;;26.85;5.70;;;;;;;-4.22;66.61;99401.86;2202720;79;21723;-73
2021/03/20 04:11:07;;;;;;;24.45;5.67;;;;;;;-4.29;66.43;99411.19;2205006;80;21811;-73
2021/03/20 04:14:09;;;;;;;26.07;6.08;;;;;;;-4.37;66.94;99414.98;2201972;79;21296;-73
2021/03/20 04:17:11;;;;;;;21.52;4.72;;;;;;;-4.47;66.92;99418.27;2208856;80;21728;-73
2021/03/20 04:20:13;;;;;;;24.47;5.83;;;;;;;-4.61;67.24;99424.56;2198225;79;21287;-73
2021/03/20 04:23:15;;;;;;;20.70;4.83;;;;;;;-4.71;67.54;99430.01;2194013;80;21299;-73
2021/03/20 04:26:17;;;;;;;25.10;5.90;;;;;;;-4.80;67.83;99432.45;2194664;80;21316;-73
2021/03/20 04:29:19;;;;;;;27.93;6.40;;;;;;;-4.85;68.00;99440.95;2191251;80;21157;-73
2021/03/20 04:32:21;;;;;;;23.25;6.28;;;;;;;-4.90;68.16;99435.36;2200724;80;21295;-73
2021/03/20 04:35:23;;;;;;;25.82;5.53;;;;;;;-4.97;68.68;99445.09;2198715;80;21716;-73
2021/03/20 04:38:25;;;;;;;;;;;;;;;-5.03;69.18;99444.99;2195840;80;21288;-73
2021/03/20 04:41:27;;;;;;;26.73;5.80;;;;;;;-5.05;68.98;99445.41;2189535;80;20238;-73
2021/03/20 04:44:29;;;;;;;25.55;6.65;;;;;;;-5.10;69.13;99449.59;2201307;80;21299;-73
2021/03/20 04:47:31;;;;;;;25.23;6.60;;;;;;;-5.13;69.19;99445.73;2191827;80;21308;-74
2021/03/20 04:50:33;;;;;;;29.75;6.75;;;;;;;-5.16;69.52;99452.09;2186767;79;21275;-73
2021/03/20 04:53:35;;;;;;;25.95;6.17;;;;;;;-5.18;69.74;99455.91;2193605;79;21276;-73
2021/03/20 04:56:37;;;;;;;27.02;6.87;;;;;;;-5.13;69.70;99455.56;2182704;80;21588;-73
2021/03/20 04:59:39;;;;;;;23.62;5.80;;;;;;;-5.17;69.75;99456.36;2189838;80;21748;-73
2021/03/20 05:02:41;;;;;;;24.63;6.25;;;;;;;-5.22;70.10;99457.55;2192214;80;21371;-73
2021/03/20 05:05:43;;;;;;;27.10;6.67;;;;;;;-5.24;70.18;99465.64;2194599;80;21307;-73
2021/03/20 05:08:45;;;;;;;28.17;6.65;;;;;;;-5.24;70.08;99456.69;2195108;80;21304;-73
2021/03/20 05:11:47;;;;;;;25.75;6.37;;;;;;;-5.20;70.59;99468.23;2202720;80;21304;-73
2021/03/20 05:14:50;;;;;;;29.02;6.95;;;;;;;-5.15;69.91;99471.72;2178711;79;21838;-73
2021/03/20 05:17:52;;;;;;;30.95;6.80;;;;;;;-5.09;70.09;99477.76;2187277;80;21736;-73
2021/03/20 05:20:54;;;;;;;31.07;6.72;;;;;;;-5.06;69.92;99484.62;2206586;80;21715;-73
2021/03/20 05:23:56;;;;;;;24.20;5.90;;;;;;;-5.09;70.83;99486.71;2194412;80;21819;-73
2021/03/20 05:26:58;;;;;;;26.07;6.42;;;;;;;-5.06;71.03;99490.62;2179949;80;21303;-73
2021/03/20 05:30:00;;;;;;;28.92;7.03;;;;;;;-5.00;70.57;99490.23;2206832;80;21703;-73
2021/03/20 05:33:02;;;;;;;24.37;6.12;;;;;;;-4.85;71.21;99492.14;2198711;80;21720;-73
2021/03/20 05:36:04;;;;;;;27.10;6.90;;;;;;;-4.76;70.31;99492.23;2208805;80;21307;-73
2021/03/20 05:39:06;;;;;;;26.25;6.15;;;;;;;-4.64;70.38;99492.79;2196798;80;21347;-73
2021/03/20 05:42:08;;;;;;;25.05;6.65;;;;;;;-4.58;70.06;99496.28;2195261;80;21293;-72
2021/03/20 05:45:10;;;;;;;26.82;6.60;;;;;;;-4.50;70.30;99498.07;2177867;80;21288;-73
2021/03/20 05:48:12;;;;;;;25.00;6.87;;;;;;;-4.41;70.12;99505.43;2198408;80;21283;-73
2021/03/20 05:51:14;;;;;;;27.93;8.03;;;;;;;-4.36;70.03;99510.59;2193833;80;21676;-73
2021/03/20 05:54:16;;;;;;;25.02;6.58;;;;;;;-4.23;70.03;99509.86;2192865;80;21821;-73
2021/03/20 05:57:19;;;;;;;27.10;7.17;;;;;;;-4.07;69.95;99509.58;2203292;80;21303;-73
2021/03/20 06:00:21;;;;;;;27.37;7.12;;;;;;;-3.89;69.50;99511.90;2193059;80;21296;-72
2021/03/20 06:03:23;;;;;;;25.57;6.97;;;;;;;-3.76;69.28;99512.86;2189643;80;21307;-73
2021/03/20 06:06:25;;;;;;;25.75;6.45;;;;;;;-3.64;68.79;99513.37;2210922;80;21275;-72
2021/03/20 06:09:27;;;;;;;26.15;6.50;;;;;;;-3.55;68.68;99514.70;2185663;80;21280;-73
2021/03/20 06:12:29;;;;;;;27.30;6.83;;;;;;;-3.45;68.89;99514.34;2189435;80;21296;-72
2021/03/20 06:15:31;;;;;;;26.27;7.62;;;;;;;-3.33;68.67;99517.01;2196305;80;21292;-73
2021/03/20 06:18:33;;;;;;;25.57;6.65;;;;;;;-3.20;67.45;99529.48;2194097;80;21284;-72
2021/03/20 06:21:35;;;;;;;26.70;6.97;;;;;;;-3.05;66.93;99526.98;2183573;80;21292;-73
2021/03/20 06:24:37;;;;;;;24.05;6.47;;;;;;;-2.91;67.43;99527.06;2210420;80;21291;-73
2021/03/20 06:27:39;;;;;;;21.85;5.97;;;;;;;-2.85;66.72;99530.94;2188228;80;21292;-72
2021/03/20 06:30:41;;;;;;;25.43;6.00;;;;;;;-2.69;66.97;99526.72;2208363;79;21303;-72
2021/03/20 06:33:43;;;;;;;22.30;6.03;;;;;;;-2.60;66.01;99534.92;2199351;80;21283;-72
2021/03/20 06:36:45;;;;;;;21.55;5.97;;;;;;;-2.54;66.21;99533.64;2186409;80;21307;-72
2021/03/20 06:39:47;;;;;;;21.62;5.75;;;;;;;-2.44;65.72;99540.52;2206246;78;21280;-72
2021/03/20 06:42:49;;;;;;;25.70;6.03;;;;;;;-2.35;65.04;99545.27;2190260;80;21296;-72
2021/03/20 06:45:51;;;;;;;24.02;6.22;;;;;;;-2.25;65.22;99541.02;2188882;80;21756;-72
2021/03/20 06:48:53;;;;;;;20.68;5.80;;;;;;;-2.17;64.44;99536.32;2189723;80;21125;-72
2021/03/20 06:51:55;;;;;;;24.10;5.35;;;;;;;-2.09;64.32;99542.75;2184296;80;21291;-72
2021/03/20 06:54:57;;;;;;;23.77;5.45;;;;;;;-1.99;63.46;99543.19;2189772;80;21739;-72
2021/03/20 06:57:59;;;;;;;21.62;5.25;;;;;;;-1.94;63.69;99552.19;2187260;80;21751;-72
2021/03/20 07:01:01;;;;;;;22.15;5.58;;;;;;;-1.85;62.32;99548.77;2186217;80;21312;-73
2021/03/20 07:04:04;;;;;;;21.17;5.33;;;;;;;-1.72;62.37;99552.20;2194056;80;21308;-72
2021/03/20 07:07:06;;;;;;;20.48;4.67;;;;;;;-1.67;62.35;99553.08;2199495;80;21383;-72
2021/03/20 07:10:07;;;;;;;17.10;4.25;;;;;;;-1.63;61.42;99554.36;2178947;80;21369;-72
2021/03/20 07:13:09;;;;;;;21.97;4.83;;;;;;;-1.59;61.31;99549.64;2180778;80;21739;-72
2021/03/20 07:16:11;;;;;;;22.80;5.60;;;;;;;-1.50;60.77;99564.66;2172591;79;21153;-72
2021/03/20 07:19:13;;;;;;;20.30;5.15;;;;;;;-1.37;60.55;99561.66;2193327;80;21711;-72
2021/03/20 07:22:15;;;;;;;19.48;4.67;;;;;;;-1.35;60.02;99568.94;2182199;80;21300;-73
2021/03/20 07:25:17;;;;;;;19.42;4.92;;;;;;;-1.46;59.84;99576.67;2174840;80;21295;-72
2021/03/20 07:28:19;;;;;;;22.52;4.75;;;;;;;-1.35;60.56;99575.37;2200733;80;21283;-72
2021/03/20 07:31:21;;;;;;;20.45;4.80;;;;;;;-1.25;58.89;99573.21;2200229;80;21308;-73
2021/03/20 07:34:24;;;;;;;17.00;4.80;;;;;;;-1.10;57.40;99575.77;2188595;80;21295;-73
2021/03/20 07:37:26;;;;;;;22.32;5.20;;;;;;;-0.90;59.63;99580.04;2190854;80;21295;-72
2021/03/20 07:40:28;;;;;;;20.62;4.87;;;;;;;-0.66;58.90;99573.97;2212409;80;21680;-73
2021/03/20 07:43:30;;;;;;;22.62;5.10;;;;;;;-0.50;57.74;99582.91;2212607;79;22048;-73
2021/03/20 07:46:32;;;;;;;19.50;4.83;;;;;;;-0.56;58.04;99583.78;2200604;80;21300;-73
2021/03/20 07:49:34;;;;;;;19.77;4.60;;;;;;;-0.41;57.14;99606.93;2189157;80;21740;-73
2021/03/20 07:52:36;;;;;;;19.32;4.40;;;;;;;-0.38;56.95;99601.76;2181523;80;21327;-73
2021/03/20 07:55:38;;;;;;;17.65;4.15;;;;;;;-0.25;56.22;99591.41;2181655;80;21138;-73
2021/03/20 07:58:40;;;;;;;17.67;4.17;;;;;;;-0.17;56.06;99587.08;2209502;80;21300;-73
2021/03/20 08:01:42;;;;;;;22.15;4.80;;;;;;;-0.14;55.44;99588.34;2204450;79;21300;-72
2021/03/20 08:04:44;;;;;;;20.23;4.92;;;;;;;0.07;57.02;99587.38;2190325;80;21300;-73
2021/03/20 08:07:47;;;;;;;18.82;5.00;;;;;;;0.50;56.43;99588.36;2194759;80;21292;-72
2021/03/20 08:10:49;;;;;;;21.65;5.22;;;;;;;0.54;53.36;99597.37;2196543;79;21296;-73
2021/03/20 08:13:52;;;;;;;19.85;5.00;;;;;;;0.51;53.80;99599.53;2197113;80;21384;-73
2021/03/20 08:16:54;;;;;;;18.37;4.42;;;;;;;0.45;53.87;99591.41;2189487;80;21776;-72
2021/03/20 08:19:56;;;;;;;19.45;4.12;;;;;;;0.33;52.69;99596.23;2171817;81;21743;-73
2021/03/20 08:22:59;;;;;;;19.02;4.83;;;;;;;-0.03;53.10;99605.03;2181145;80;21747;-73
2021/03/20 08:26:01;;;;;;;21.50;5.53;;;;;;;-0.31;54.19;99595.31;2188243;80;21312;-72
2021/03/20 08:29:04;;;;;;;17.87;4.72;;;;;;;0.10;53.67;99594.21;2194024;79;21308;-73
2021/03/20 08:32:06;;;;;;;13.35;3.20;;;;;;;0.62;53.45;99589.98;2200106;80;21771;-73
2021/03/20 08:35:08;;;;;;;14.53;3.35;;;;;;;1.06;50.07;99599.92;2184754;79;21304;-73
2021/03/20 08:38:10;;;;;;;14.80;3.67;;;;;;;0.95;50.39;99598.72;2197061;78;21272;-73
2021/03/20 08:41:12;;;;;;;14.98;3.77;;;;;;;0.54;47.82;99603.38;2189114;80;21288;-73
2021/03/20 08:44:14;;;;;;;15.78;3.30;;;;;;;0.81;51.12;99605.32;2196068;80;21371;-73
2021/03/20 08:47:16;;;;;;;15.98;3.60;;;;;;;0.83;49.22;99604.45;2208091;80;21322;-72
2021/03/20 08:50:18;;;;;;;13.65;3.52;;;;;;;0.64;48.01;99608.89;2179057;80;21142;-73
2021/03/20 08:53:20;;;;;;;13.48;3.50;;;;;;;0.98;48.30;99608.60;2208447;80;21316;-73
2021/03/20 08:56:23;;;;;;;15.55;3.47;;;;;;;1.11;47.79;99614.95;2179141;80;21111;-73
2021/03/20 08:59:26;;;;;;;15.75;3.47;;;;;;;1.19;49.42;99617.88;2192158;80;21731;-73
2021/03/20 09:02:28;;;;;;;14.58;3.20;;;;;;;1.38;47.55;99619.83;2190553;80;21314;-73
2021/03/20 09:05:30;;;;;;;17.05;3.33;;;;;;;1.66;46.40;99618.66;2199567;79;21263;-73
2021/03/20 09:08:32;;;;;;;12.20;3.42;;;;;;;1.80;44.37;99618.05;2187098;79;21336;-73
2021/03/20 09:11:34;;;;;;;13.18;3.30;;;;;;;2.12;48.04;99618.51;2193830;80;21296;-72
2021/03/20 09:14:36;;;;;;;17.48;3.60;;;;;;;1.76;45.60;99623.29;2194465;80;21303;-73
2021/03/20 09:17:39;;;;;;;12.37;3.27;;;;;;;1.02;45.10;99636.13;2166221;81;21724;-73
2021/03/20 09:20:42;;;;;;;14.43;3.52;;;;;;;0.71;47.54;99641.98;2180810;80;21161;-73
2021/03/20 09:23:44;;;;;;;15.20;4.00;;;;;;;0.59;47.37;99633.91;2202322;80;21305;-73
2021/03/20 09:26:46;;;;;;;16.37;3.40;;;;;;;1.21;47.98;99627.75;2198070;80;21292;-72
2021/03/20 09:29:48;;;;;;;15.95;3.25;;;;;;;1.76;46.44;99652.59;2197005;80;21625;-72
2021/03/20 09:32:50;;;;;;;13.48;3.37;;;;;;;1.31;45.84;99636.28;2202238;80;21767;-73
2021/03/20 09:35:53;;;;;;;;;;;;;;;0.82;45.50;99648.34;2193594;80;21744;-73
2021/03/20 09:38:55;;;;;;;17.27;3.40;;;;;;;0.58;45.56;99647.67;2195361;79;20266;-73
2021/03/20 09:41:57;;;;;;;15.15;3.17;;;;;;;0.75;46.85;99637.63;2190355;80;21331;-73
2021/03/20 09:44:59;;;;;;;14.65;3.33;;;;;;;1.40;46.26;99638.36;2174932;80;21264;-73
2021/03/20 09:48:01;;;;;;;17.42;3.70;;;;;;;2.26;47.61;99621.76;2180247;80;21283;-73
2021/03/20 09:51:02;;;;;;;16.50;3.70;;;;;;;2.91;44.84;99631.95;2198926;80;21288;-73
2021/03/20 09:54:04;;;;;;;16.80;3.37;;;;;;;3.33;44.37;99640.75;2193012;80;21279;-72
2021/03/20 09:57:06;;;;;;;12.58;3.17;;;;;;;2.70;41.50;99643.97;2185077;80;21292;-73
2021/03/20 10:00:09;;;;;;;14.73;3.62;;;;;;;2.14;43.76;99646.50;2194228;80;21743;-72
2021/03/20 10:03:11;;;;;;;15.15;3.50;;;;;;;1.79;44.62;99647.83;2207628;80;21362;-73
2021/03/20 10:06:13;;;;;;;12.63;3.30;;;;;;;1.79;42.76;99657.72;2202256;80;21288;-73
2021/03/20 10:09:15;;;;;;;16.60;4.17;;;;;;;1.49;42.48;99657.63;2194842;80;21739;-73
2021/03/20 10:12:17;;;;;;;15.35;3.95;;;;;;;1.75;44.26;99655.20;2189215;80;21288;-73
2021/03/20 10:15:19;;;;;;;14.35;3.25;;;;;;;1.41;40.97;99655.14;2191570;80;21149;-73
2021/03/20 10:18:21;;;;;;;14.63;3.67;;;;;;;1.52;43.21;99655.89;2199384;80;21859;-73
2021/03/20 10:21:24;;;;;;;16.37;3.90;;;;;;;2.22;41.87;99653.28;2203214;80;21307;-73
2021/03/20 10:24:26;;;;;;;14.78;4.05;;;;;;;2.74;41.16;99665.06;2203488;80;21288;-73
2021/03/20 10:27:28;;;;;;;16.25;3.98;;;;;;;2.40;39.92;99678.08;2164813;80;21304;-73
2021/03/20 10:30:30;;;;;;;15.35;3.70;;;;;;;1.79;40.54;99670.66;2206110;80;21324;-72
2021/03/20 10:33:32;;;;;;;14.13;3.25;;;;;;;1.24;40.59;99675.14;2186032;80;21299;-73
2021/03/20 10:36:34;;;;;;;19.00;4.03;;;;;;;1.03;42.14;99670.14;2194445;80;21783;-73
2021/03/20 10:39:36;;;;;;;16.82;3.67;;;;;;;0.80;41.12;99665.14;2202997;80;21708;-73
2021/03/20 10:42:38;;;;;;;18.95;3.65;;;;;;;0.83;40.85;99669.43;2213740;79;21295;-73
2021/03/20 10:45:41;;;;;;;15.78;3.62;;;;;;;1.12;41.92;99664.04;2187200;80;21169;-73
2021/03/20 10:48:43;;;;;;;14.75;3.35;;;;;;;1.40;39.51;99662.47;2183745;80;21593;-73
2021/03/20 10:51:45;;;;;;;16.93;3.92;;;;;;;1.92;39.77;99675.70;2192982;80;21389;-72
2021/03/20 10:54:48;;;;;;;14.70;3.72;;;;;;;2.15;39.02;99688.34;2164538;80;21703;-73
2021/03/20 10:57:50;;;;;;;18.90;4.03;;;;;;;1.78;39.49;99681.02;2199326;80;21332;-73
2021/03/20 11:00:52;;;;;;;15.60;3.67;;;;;;;1.44;39.62;99674.91;2189700;80;21751;-73
2021/03/20 11:03:55;;;;;;;13.10;3.47;;;;;;;1.35;40.89;99669.40;2206459;79;21311;-73
2021/03/20 11:06:57;;;;;;;13.25;3.45;;;;;;;1.68;37.94;99669.50;2203926;80;21299;-73
2021/03/20 11:09:59;;;;;;;16.00;3.80;;;;;;;1.58;38.72;99660.14;2195448;80;21293;-73
2021/03/20 11:13:01;;;;;;;15.68;3.98;;;;;;;2.11;40.04;99669.84;2171595;80;21288;-73
2021/03/20 11:16:03;;;;;;;18.27;3.72;;;;;;;1.54;37.21;99676.11;2194219;80;21303;-73
2021/03/20 11:19:05;;;;;;;17.98;3.72;;;;;;;1.06;38.53;99668.39;2196506;80;21756;-73
2021/03/20 11:22:07;;;;;;;14.20;3.70;;;;;;;0.92;38.08;99668.50;2181351;80;21776;-73
2021/03/20 11:25:09;;;;;;;17.62;3.85;;;;;;;1.26;38.85;99679.84;2186533;80;21158;-73
2021/03/20 11:28:11;;;;;;;14.87;3.90;;;;;;;2.09;40.51;99654.34;2195720;80;21233;-73
2021/03/20 11:31:13;;;;;;;13.72;3.40;;;;;;;2.10;39.85;99683.66;2186932;80;21323;-73
2021/03/20 11:34:15;;;;;;;14.05;3.45;;;;;;;2.53;36.84;99656.75;2194013;80;21329;-73
2021/03/20 11:37:17;;;;;;;13.60;2.85;;;;;;;2.94;36.51;99669.92;2180409;80;21767;-73
2021/03/20 11:40:19;;;;;;;13.25;2.98;;;;;;;2.86;35.44;99659.70;2174672;80;21719;-73
2021/03/20 11:43:21;;;;;;;12.90;2.83;;;;;;;2.54;35.54;99648.11;2186849;80;21300;-73
2021/03/20 11:46:23;;;;;;;11.88;2.90;;;;;;;2.17;33.83;99644.75;2192355;80;21776;-73
2021/03/20 11:49:25;;;;;;;14.93;3.33;;;;;;;1.92;34.85;99636.44;2197539;80;21744;-73
2021/03/20 11:52:27;;;;;;;15.40;3.40;;;;;;;2.00;36.57;99635.06;2199019;80;21299;-73
2021/03/20 11:55:29;;;;;;;13.15;3.33;;;;;;;2.04;35.87;99640.17;2192478;80;21312;-73
2021/03/20 11:58:31;;;;;;;14.38;3.15;;;;;;;1.67;32.46;99647.09;2189639;80;21743;-73
2021/03/20 12:01:33;;;;;;;15.00;3.27;;;;;;;1.36;34.86;99637.52;2205405;79;22043;-73
2021/03/20 12:04:35;;;;;;;13.30;3.37;;;;;;;1.60;33.27;99636.84;2189412;80;21774;-73
2021/03/20 12:07:37;;;;;;;14.20;3.40;;;;;;;1.57;33.67;99641.61;2190236;80;21741;-73
2021/03/20 12:10:39;;;;;;;13.93;3.90;;;;;;;1.42;34.51;99646.48;2197328;80;21296;-73
2021/03/20 12:13:43;;;;;;;14.53;3.30;;;;;;;1.71;35.58;99628.49;2186182;80;21300;-73
2021/03/20 12:16:45;;;;;;;14.15;3.50;;;;;;;2.51;36.35;99626.56;2184678;80;21716;-73
2021/03/20 12:19:47;;;;;;;16.00;3.30;;;;;;;2.81;35.37;99628.27;2195569;80;21729;-73
2021/03/20 12:22:50;;;;;;;16.32;3.50;;;;;;;3.18;35.36;99623.75;2184564;80;21272;-73
2021/03/20 12:25:52;;;;;;;13.22;3.30;;;;;;;3.73;34.12;99625.72;2203979;80;21727;-73
2021/03/20 12:28:54;;;;;;;15.23;3.15;;;;;;;4.15;33.95;99610.98;2183149;80;21293;-73
2021/03/20 12:31:57;;;;;;;16.02;3.65;;;;;;;3.84;31.50;99632.00;2201607;80;21299;-73
2021/03/20 12:34:59;;;;;;;13.32;3.00;;;;;;;3.34;31.73;99640.72;2196292;79;21312;-73
2021/03/20 12:38:01;;;;;;;14.20;3.42;;;;;;;3.05;33.92;99640.80;2200910;80;21601;-73
2021/03/20 12:41:04;;;;;;;12.75;3.58;;;;;;;2.62;33.50;99638.92;2191771;80;21319;-73
2021/03/20 12:44:06;;;;;;;;;;;;;;;2.08;32.36;99641.84;2186194;80;21295;-73
2021/03/20 12:47:08;;;;;;;15.68;3.85;;;;;;;1.86;35.11;99628.77;2201388;80;20246;-73
2021/03/20 12:50:10;;;;;;;17.42;3.65;;;;;;;1.68;35.38;99633.30;2204085;80;21284;-73
2021/03/20 12:53:13;;;;;;;14.60;3.42;;;;;;;1.69;35.42;99621.20;2197709;80;21753;-73
2021/03/20 12:56:15;;;;;;;16.00;3.50;;;;;;;1.72;35.41;99627.22;2195103;80;21292;-73
2021/03/20 12:59:17;;;;;;;13.20;3.40;;;;;;;2.36;35.37;99644.49;2182587;80;21292;-73
2021/03/20 13:02:19;;;;;;;16.42;3.90;;;;;;;2.03;32.29;99628.10;2193315;80;21350;-73
2021/03/20 13:05:21;;;;;;;16.40;3.95;;;;;;;1.57;33.61;99624.80;2168836;80;21292;-73
2021/03/20 13:08:23;;;;;;;17.75;4.05;;;;;;;1.48;33.69;99626.17;2189719;80;21275;-73
2021/03/20 13:11:25;;;;;;;17.92;4.33;;;;;;;1.56;36.30;99649.78;2198214;80;21740;-73
2021/03/20 13:14:27;;;;;;;20.30;4.15;;;;;;;1.32;37.15;99634.13;2190389;80;21134;-73
2021/03/20 13:17:29;;;;;;;19.92;4.67;;;;;;;1.18;36.76;99634.25;2200768;79;21170;-73
2021/03/20 13:20:31;;;;;;;18.12;4.55;;;;;;;1.13;37.45;99644.21;2190801;79;21287;-74
2021/03/20 13:23:33;;;;;;;14.10;4.15;;;;;;;1.20;37.56;99618.73;2178280;80;21296;-74
2021/03/20 13:26:35;;;;;;;16.77;3.77;;;;;;;1.22;37.22;99616.97;2201833;80;21273;-73
2021/03/20 13:29:38;;;;;;;17.10;4.25;;;;;;;1.75;36.05;99621.12;2188383;80;21751;-73
2021/03/20 13:32:40;;;;;;;19.10;4.60;;;;;;;1.65;36.70;99628.16;2193497;80;21273;-73
2021/03/20 13:35:42;;;;;;;16.75;4.42;;;;;;;1.78;37.46;99622.82;2196568;80;21409;-73
2021/03/20 13:38:44;;;;;;;18.50;4.70;;;;;;;2.20;38.53;99609.75;2194882;80;21300;-73
2021/03/20 13:41:46;;;;;;;18.65;4.30;;;;;;;2.24;35.21;99616.60;2169891;80;21292;-73
2021/03/20 13:44:49;;;;;;;17.85;4.65;;;;;;;1.97;35.82;99605.31;2186299;80;21894;-73
2021/03/20 13:47:51;;;;;;;18.75;4.47;;;;;;;1.66;35.18;99605.28;2197546;80;21344;-73
2021/03/20 13:50:53;;;;;;;16.95;4.22;;;;;;;1.30;36.60;99603.98;2200804;80;21315;-73
2021/03/20 13:53:54;;;;;;;19.10;4.40;;;;;;;1.14;36.07;99614.47;2182630;80;21303;-73
2021/03/20 13:56:56;;;;;;;20.32;4.60;;;;;;;1.11;36.47;99595.13;2193379;80;21296;-73
2021/03/20 13:59:59;;;;;;;17.77;5.22;;;;;;;1.50;37.52;99586.51;2202983;80;21308;-73
2021/03/20 14:03:01;;;;;;;17.75;4.85;;;;;;;2.18;36.45;99579.14;2191367;80;21289;-73
2021/03/20 14:06:03;;;;;;;19.30;5.08;;;;;;;2.56;39.48;99591.95;2189987;80;21625;-73
2021/03/20 14:09:05;;;;;;;14.87;4.28;;;;;;;3.15;35.79;99585.77;2172359;81;21799;-73
2021/03/20 14:12:07;;;;;;;17.55;4.62;;;;;;;2.93;32.21;99612.06;2197416;80;21308;-73